AirNav   Pilot Hours Calculator
 
 702 users online  

WA84 Auburn Academy Airport
Auburn, Washington, USA

GOING TO AUBURN?


FAA INFORMATION EFFECTIVE 04 NOVEMBER 2021

Location

FAA Identifier: WA84
Lat/Long: 47-16-50.3620N 122-08-58.4210W
47-16.839367N 122-08.973683W
47.2806561,-122.1495614
(estimated)
Elevation: 416 ft. / 127 m (estimated)
Variation: 20E (1985)
From city: 3 miles SE of AUBURN, WA
Time zone: UTC -7 (UTC -8 during Standard Time)
Zip code: 98092

Airport Operations

Airport use: Private use. Permission required prior to landing
Activation date: 05/1969
Control tower: no
ARTCC: SEATTLE CENTER
FSS: SEATTLE FLIGHT SERVICE STATION
Attendance: UNATNDD
Wind indicator: yes
Segmented circle: no

Airport Communications

WX AWOS-3 at PLU (12 nm SW): 128.575 (253-848-2748)
WX ASOS at SEA (12 nm NW): PHONE 206-214-2592
WX ASOS at RNT (13 nm N): 126.95 (425-255-6080)
WX ASOS at TCM (16 nm SW): PHONE 253-982-3434
WX ASOS at BFI (16 nm N): PHONE 206-658-6435
WX ASOS at TIW (17 nm W): PHONE 253-858-6507
  • MULTICOM FREQ 122.9

Nearby radio navigation aids

VOR radial/distance  VOR name  Freq  Var
SEAr126/11.3SEATTLE VORTAC116.8019E
OLMr040/35.9OLYMPIA VORTAC113.4019E
PAEr152/38.7PAINE VOR/DME110.6020E

Airport Services

Airframe service: NONE
Powerplant service: NONE

Runway Information

Runway 9/27

Dimensions: 2650 x 75 ft. / 808 x 23 m
Surface: turf
RUNWAY 9  RUNWAY 27
Traffic pattern: leftright
Obstructions: 100 ft. pline, 2640 ft. from runway100 ft. trees, 400 ft. from runway

Airport Ownership and Management from official FAA records

Ownership: Privately-owned
Owner: AUBURN ADVENTIST ACADEMY
5000 AUBURN WAY SO
AUBURN, WA 98092
Phone 253-939-5000
Manager: DALE HYDE
5000 AUBURN WAY S.
AUBURN, WA 98092
Phone 253-939-5000

Airport Operational Statistics

Aircraft based on the field: 2
Single engine airplanes: 2
    

Additional Remarks

FOR CD CTC SEATTLE APCH AT 206-214-4794.

Instrument Procedures

There are no published instrument procedures at WA84.

Some nearby airports with instrument procedures:

S50 - Auburn Municipal Airport (4 nm NW)
KPLU - Pierce County Airport - Thun Field (12 nm SW)
KSEA - Seattle-Tacoma International Airport (12 nm NW)
KRNT - Renton Municipal Airport (13 nm N)
KTCM - McChord Field Airport (Joint Base Lewis-McChord) (16 nm SW)
KBFI - Boeing Field/King County International Airport (16 nm N)
KTIW - Tacoma Narrows Airport (17 nm W)
 
Loc | Ops | Rwys | IFR | FBO | Links
Com | Nav | Svcs | Stats | Notes
Area around WA84 (Auburn Academy Airport)
 
Road maps at: MapQuest Bing Google
 
Aerial photo
WARNING: Photo may not be current or correct
Aerial photo of WA84 (Auburn Academy Airport)
Taken in November 2007

Do you have a better or more recent aerial photo of Auburn Academy Airport that you would like to share? If so, please send us your photo.

 
Sectional chart

 
Airport distance calculator
Flying to Auburn Academy Airport? Find the distance to fly.

From to WA84

Sunrise and sunset
Times for 30-Nov-2021
 Local
(UTC-8)
 Zulu
(UTC)
Morning civil twilight07:0015:00
Sunrise07:3515:35
Sunset16:2000:20
Evening civil twilight16:5500:55

Current date and time
Zulu (UTC)  01-Dec-2021 06:09:21
Local (UTC-8)  30-Nov-2021 22:09:21
 
METAR
KPLU 
12nm SW 
010555Z AUTO 00000KT 10SM OVC033 12/11 A3026 RMK AO2
KSEA 
12nm NW 
010553Z 20013KT 10SM FEW015 BKN020 OVC090 12/09 A3023 RMK AO2 SLP244 T01220094 10122 20117 51003
KRNT 
13nm N 
010553Z AUTO 16008KT 10SM FEW022 OVC090 13/09 A3023 RMK AO2 SLP243 60000 T01330089 10133 20128 51003
KTCM 
16nm SW 
010558Z AUTO 21007KT 10SM FEW090 BKN110 12/10 A3025 RMK AO2 SLP248 60000 T01200104 10122 20113 50002 $
KBFI 
18nm NW 
010553Z 18012G22KT 10SM OVC095 13/10 A3024 RMK AO2 SLP238 60000 T01280100 10128 20122 51005
KTIW 
18nm W 
010553Z AUTO 21006G22KT 10SM OVC090 11/09 A3025 RMK AO2 SLP245 60000 T01110094 10111 20100 56004 $
KGRF 
21nm SW 
010558Z 18007KT 10SM BKN080 BKN090 12/09 A3024 RMK AO2A SLP245 60001 T01240094 10124 20115 50001 $
TAF
KSEA 
12nm NW 
010251Z 0103/0206 20012G20KT P6SM SCT013 BKN070 FM010600 19011KT P6SM OVC020 FM011000 18008KT P6SM OVC020 FM012100 20010KT P6SM SCT025 BKN050 FM020400 20008KT P6SM VCSH BKN030 OVC050
KTCM 
16nm SW 
302118Z 3021/0203 16012G18KT 9000 -SHRA BKN040 610909 510103 QNH3015INS BECMG 0105/0106 20009KT 9999 NSW BKN020 OVC040 621008 510102 QNH3019INS BECMG 0111/0112 20007KT 9999 BKN015 OVC070 621008 510102 QNH3018INS BECMG 0118/0119 20009KT 9000 -SHRA BKN020 OVC030 621008 510102 QNH3015INS TX12/3021Z TN09/0113Z
KBFI 
18nm NW 
010520Z 0106/0206 19010G18KT P6SM BKN015 OVC080 FM010900 17010G17KT P6SM OVC020 FM012300 20010KT P6SM OVC015
NOTAMs
Click for the latest NOTAMs
NOTAMs are issued by the DoD/FAA and will open in a separate window not controlled by AirNav.

 

 
 

Would you like to see your business listed on this page?

 If your business provides an interesting product or service to pilots, flight crews, aircraft, or users of the Auburn Academy Airport, you should consider listing it here.  To start the listing process, click on the button below
 
Add a business
 

Other Pages about Auburn Academy Airport

Update a link
 
Copyright © AirNav, LLC. All rights reserved. Privacy Policy  Contact